Monday, October 15, 2018, 8:57 AM GMT
Back to Local

CWKG, Kejimkujik 1, N. S.

Location: , , Canada Lat: 44.433
Local Time: 8:57 AM GMT ( 8:57 GMT) Lon: -65.2
Time Zone: GMT Elev: 416 ft

Show me the last for .
Show Coded

Time T Td Feel RH Dir Speed Gust Alt SLP Vis Weather Sky Remarks
2018-10-15 08:00 32 33 - 104 350° 2 - - 30.20 0 None
2018-10-15 07:00 34 31 - 91 320° 2 - - 30.19 0 None
2018-10-15 06:00 34 33 - 95 310° 2 - - 30.19 0 None
2018-10-15 05:00 35 33 32 95 320° 3 - - 30.19 0 None
2018-10-15 04:00 35 33 - 94 320° 2 - - 30.18 0 None
2018-10-15 03:00 35 34 - 94 320° 2 - - 30.17 0 None
2018-10-15 02:00 36 34 33 92 300° 3 - - 30.17 0 None
2018-10-15 01:00 37 35 - 91 290° 2 - - 30.16 0 None
2018-10-15 00:00 39 36 37 86 270° 3 - - 30.14 0 None
2018-10-14 23:00 40 36 37 86 270° 3 - - 30.12 0 None
2018-10-14 22:00 41 35 37 76 280° 6 - - 30.11 0 None
2018-10-14 21:00 44 35 40 69 280° 7 - - 30.09 0 None
2018-10-14 20:00 47 35 44 63 300° 6 - - 30.07 0 Peak wind: 19 mph (17 kts) from 300° at 27 min
2018-10-14 19:00 49 33 45 55 290° 7 - - 30.06 0 None
2018-10-14 18:00 49 36 46 60 290° 7 - - 30.05 0 Peak wind: 19 mph (17 kts) from 310° at 42 min
2018-10-14 17:00 48 33 45 55 310° 8 - - 30.04 0 Peak wind: 19 mph (17 kts) from 300° at 15 min
2018-10-14 16:00 47 34 44 60 310° 7 - - 30.05 0 Peak wind: 20 mph (18 kts) from 290° at 30 min
2018-10-14 15:00 46 33 42 60 320° 7 - - 30.05 0 Peak wind: 20 mph (18 kts) from 310° at 23 min
2018-10-14 14:00 45 36 41 70 310° 7 - - 30.04 0 None
2018-10-14 13:00 43 39 39 86 300° 6 - - 30.03 0 None
2018-10-14 12:00 38 37 34 95 300° 5 - - 30.01 0 None
2018-10-14 11:00 35 34 30 96 290° 6 - - 29.98 0 None
2018-10-14 10:00 35 34 31 96 280° 5 - - 29.96 0 None
2018-10-14 09:00 34 33 31 96 290° 3 - - 29.94 0 None

Support USWX by starting your Amazon purchase here.